createdAt,value
2018-12-02T00:00:17.976Z,53.35
2018-12-02T00:02:45.361Z,53.57
2018-12-02T00:05:12.752Z,52.48
2018-12-02T00:07:40.325Z,53.39
2018-12-02T00:10:10.742Z,53.36
2018-12-02T00:12:38.306Z,53.03
2018-12-02T00:15:38.161Z,52.29
2018-12-02T00:18:07.962Z,52.83
2018-12-02T00:20:35.379Z,52.76
2018-12-02T00:23:02.766Z,52.96
2018-12-02T00:25:30.130Z,52.57
2018-12-02T00:27:58.916Z,52.81
2018-12-02T00:30:27.580Z,53.78
2018-12-02T00:32:54.982Z,52.07
2018-12-02T00:35:22.408Z,52.64
2018-12-02T00:37:51.130Z,50.50
2018-12-02T00:40:19.408Z,51.72
2018-12-02T00:42:56.702Z,51.40
2018-12-02T00:45:27.281Z,51.07
2018-12-02T00:47:54.830Z,52.72
2018-12-02T00:50:22.309Z,52.15
2018-12-02T00:52:52.954Z,52.76
2018-12-02T00:55:24.360Z,52.78
2018-12-02T00:57:51.793Z,52.06
2018-12-02T01:00:19.895Z,51.58
2018-12-02T01:02:48.529Z,51.85
2018-12-02T01:05:16.825Z,51.57
2018-12-02T01:07:44.248Z,51.85
2018-12-02T01:10:13.867Z,52.97
2018-12-02T01:12:41.324Z,53.26
2018-12-02T01:15:13.919Z,51.63
2018-12-02T01:17:41.351Z,51.45
2018-12-02T01:20:10.217Z,53.06
2018-12-02T01:22:37.597Z,51.41
2018-12-02T01:25:06.177Z,51.38
2018-12-02T01:27:33.554Z,51.27
2018-12-02T01:30:01.650Z,52.20
2018-12-02T01:32:29.027Z,52.73
2018-12-02T01:34:56.452Z,51.89
2018-12-02T01:37:23.785Z,51.91
2018-12-02T01:39:51.173Z,51.47
2018-12-02T01:42:18.513Z,52.09
2018-12-02T01:44:45.990Z,52.54
2018-12-02T01:47:13.321Z,52.71
2018-12-02T01:49:40.655Z,53.40
2018-12-02T01:52:08.068Z,53.61
2018-12-02T01:54:35.465Z,53.40
2018-12-02T01:57:02.799Z,53.13
2018-12-02T01:59:30.177Z,54.01
2018-12-02T02:01:57.716Z,54.02
2018-12-02T02:04:25.078Z,52.85
2018-12-02T02:06:52.450Z,53.12
2018-12-02T02:09:19.899Z,53.13
2018-12-02T02:11:47.345Z,53.03
2018-12-02T02:14:14.852Z,53.79
2018-12-02T02:16:42.174Z,52.47
2018-12-02T02:19:09.584Z,53.24
2018-12-02T02:21:36.945Z,53.13
2018-12-02T02:24:04.684Z,53.13
2018-12-02T02:26:32.136Z,52.33
2018-12-02T02:28:59.560Z,53.13
2018-12-02T02:31:26.908Z,53.82
2018-12-02T02:33:54.333Z,53.84
2018-12-02T02:36:21.829Z,53.84
2018-12-02T02:38:49.323Z,54.17
2018-12-02T02:41:16.668Z,54.39
2018-12-02T02:43:44.026Z,53.80
2018-12-02T02:46:11.445Z,52.87
2018-12-02T02:48:38.863Z,53.57
2018-12-02T02:51:06.229Z,53.90
2018-12-02T02:53:33.606Z,54.33
2018-12-02T02:56:00.973Z,53.30
2018-12-02T02:58:28.347Z,52.51
2018-12-02T03:00:56.363Z,53.68
2018-12-02T03:03:23.886Z,54.62
2018-12-02T03:05:51.365Z,54.20
2018-12-02T03:08:18.691Z,53.47
2018-12-02T03:10:46.125Z,54.09
2018-12-02T03:13:13.463Z,54.32
2018-12-02T03:15:40.920Z,52.80
2018-12-02T03:18:08.257Z,52.61
2018-12-02T03:20:35.635Z,52.35
2018-12-02T03:23:02.990Z,52.33
2018-12-02T03:25:30.383Z,51.75
2018-12-02T03:27:57.923Z,52.66
2018-12-02T03:30:25.704Z,53.26
2018-12-02T03:32:53.344Z,53.21
2018-12-02T03:35:27.582Z,52.40
2018-12-02T03:37:55.845Z,53.04
2018-12-02T03:40:26.954Z,52.62
2018-12-02T03:42:54.465Z,52.55
2018-12-02T03:45:23.879Z,53.96
2018-12-02T03:47:51.229Z,53.22
2018-12-02T03:50:19.667Z,52.94
2018-12-02T03:52:47.393Z,53.06
2018-12-02T03:55:14.773Z,52.24
2018-12-02T03:57:42.239Z,52.98
2018-12-02T04:00:25.088Z,52.90
2018-12-02T04:02:53.524Z,54.14
2018-12-02T04:05:23.940Z,54.23
2018-12-02T04:07:51.548Z,53.54
2018-12-02T04:10:19.482Z,54.12
2018-12-02T04:12:47.974Z,53.41
2018-12-02T04:15:16.506Z,53.23
2018-12-02T04:17:44.890Z,53.51
2018-12-02T04:20:14.011Z,52.67
2018-12-02T04:22:41.722Z,53.05
2018-12-02T04:25:12.217Z,52.53
2018-12-02T04:27:39.585Z,52.91
2018-12-02T04:30:10.641Z,53.06
2018-12-02T04:32:38.039Z,53.05
2018-12-02T04:35:09.099Z,52.69
2018-12-02T04:37:36.469Z,53.32
2018-12-02T04:40:06.380Z,52.61
2018-12-02T04:42:33.747Z,52.69
2018-12-02T04:45:01.187Z,53.39
2018-12-02T04:47:28.640Z,54.11
2018-12-02T04:49:55.997Z,53.45
2018-12-02T04:52:23.463Z,53.71
2018-12-02T04:54:51.171Z,54.12
2018-12-02T04:57:18.677Z,53.38
2018-12-02T04:59:47.347Z,53.76
2018-12-02T05:02:13.729Z,53.45
2018-12-02T05:04:41.183Z,53.61
2018-12-02T05:07:08.536Z,52.68
2018-12-02T05:09:35.909Z,52.89
2018-12-02T05:12:03.267Z,53.47
2018-12-02T05:14:30.745Z,53.08
2018-12-02T05:16:58.085Z,53.82
2018-12-02T05:19:25.464Z,53.69
2018-12-02T05:21:53.895Z,54.34
2018-12-02T05:24:21.275Z,54.49
2018-12-02T05:26:48.718Z,55.08
2018-12-02T05:29:17.563Z,54.36
2018-12-02T05:31:44.923Z,56.81
2018-12-02T05:34:13.004Z,56.26
2018-12-02T05:36:40.381Z,57.32
2018-12-02T05:39:09.543Z,55.93
2018-12-02T05:41:43.026Z,54.61
2018-12-02T05:44:10.449Z,55.18
2018-12-02T05:46:37.929Z,55.37
2018-12-02T05:49:05.427Z,55.08
2018-12-02T05:51:32.758Z,54.76
2018-12-02T05:54:00.247Z,54.39
2018-12-02T05:56:27.611Z,54.60
2018-12-02T05:58:55.055Z,54.07
2018-12-02T06:01:22.391Z,55.15
2018-12-02T06:03:49.734Z,54.40
2018-12-02T06:06:17.078Z,54.72
2018-12-02T06:08:44.454Z,54.33
2018-12-02T06:11:12.015Z,55.26
2018-12-02T06:13:39.460Z,54.92
2018-12-02T06:16:06.810Z,54.94
2018-12-02T06:18:34.171Z,54.23
2018-12-02T06:21:01.499Z,54.81
2018-12-02T06:23:30.753Z,54.62
2018-12-02T06:25:58.116Z,53.98
2018-12-02T06:28:25.449Z,54.44
2018-12-02T06:30:52.841Z,54.73
2018-12-02T06:33:20.209Z,55.11
2018-12-02T06:35:47.728Z,55.05
2018-12-02T06:38:15.157Z,54.25
2018-12-02T06:40:42.540Z,54.82
2018-12-02T06:43:11.280Z,54.40
2018-12-02T06:45:38.778Z,54.41
2018-12-02T06:48:06.237Z,54.45
2018-12-02T06:50:33.672Z,55.47
2018-12-02T06:53:01.039Z,54.44
2018-12-02T06:55:45.248Z,54.57
2018-12-02T06:58:25.291Z,55.21
2018-12-02T07:01:14.813Z,54.80
2018-12-02T07:03:56.522Z,55.61
2018-12-02T07:06:23.903Z,54.80
2018-12-02T07:08:51.444Z,54.83
2018-12-02T07:11:18.797Z,55.46
2018-12-02T07:13:46.177Z,55.11
2018-12-02T07:16:13.511Z,53.70
2018-12-02T07:18:44.510Z,53.94
2018-12-02T07:21:17.913Z,55.69
2018-12-02T07:23:48.891Z,55.25
2018-12-02T07:26:19.698Z,54.06
2018-12-02T07:28:47.053Z,54.53
2018-12-02T07:31:14.391Z,55.37
2018-12-02T07:33:41.867Z,55.48
2018-12-02T07:36:09.724Z,53.86
2018-12-02T07:38:39.982Z,54.05
2018-12-02T07:41:08.433Z,54.63
2018-12-02T07:43:35.879Z,53.46
2018-12-02T07:46:03.213Z,53.92
2018-12-02T07:48:30.695Z,54.46
2018-12-02T07:50:58.020Z,54.74
2018-12-02T07:53:25.500Z,56.22
2018-12-02T07:55:53.050Z,56.87
2018-12-02T07:58:20.568Z,56.49
2018-12-02T08:00:47.909Z,58.59
2018-12-02T08:03:15.224Z,57.82
2018-12-02T08:05:42.733Z,58.51
2018-12-02T08:08:10.220Z,58.62
2018-12-02T08:10:37.630Z,59.24
2018-12-02T08:13:05.595Z,58.59
2018-12-02T08:15:32.989Z,59.12
2018-12-02T08:18:00.430Z,58.84
2018-12-02T08:20:27.784Z,57.77
2018-12-02T08:22:55.136Z,58.60
2018-12-02T08:25:22.582Z,59.22
2018-12-02T08:27:50.036Z,58.64
2018-12-02T08:30:21.564Z,59.49
2018-12-02T08:32:49.062Z,59.61
2018-12-02T08:35:17.508Z,59.56
2018-12-02T08:37:46.370Z,59.23
2018-12-02T08:40:13.740Z,60.11
2018-12-02T08:42:41.214Z,60.63
2018-12-02T08:45:17.198Z,59.98
2018-12-02T08:47:44.848Z,59.73
2018-12-02T08:50:17.941Z,60.56
2018-12-02T08:52:46.294Z,61.30
2018-12-02T08:55:14.943Z,61.86
2018-12-02T08:57:42.386Z,61.99
2018-12-02T09:00:12.944Z,61.39
2018-12-02T09:02:40.400Z,61.27
2018-12-02T09:05:09.139Z,60.06
2018-12-02T09:07:36.598Z,60.84
2018-12-02T09:10:09.108Z,61.09
2018-12-02T09:12:36.707Z,60.75
2018-12-02T09:15:04.421Z,60.25
2018-12-02T09:17:31.871Z,60.83
2018-12-02T09:19:59.263Z,61.06
2018-12-02T09:22:26.573Z,60.81
2018-12-02T09:24:53.943Z,60.98
2018-12-02T09:27:21.381Z,61.81
2018-12-02T09:29:48.795Z,61.00
2018-12-02T09:32:16.224Z,60.86
2018-12-02T09:34:43.635Z,62.83
2018-12-02T09:37:10.971Z,63.10
2018-12-02T09:39:38.372Z,62.60
2018-12-02T09:42:05.957Z,61.95
2018-12-02T09:44:33.303Z,61.15
2018-12-02T09:47:00.698Z,62.20
2018-12-02T09:49:28.023Z,62.81
2018-12-02T09:51:55.417Z,61.58
2018-12-02T09:54:23.445Z,61.89
2018-12-02T09:56:50.627Z,62.32
2018-12-02T09:59:18.022Z,63.56
2018-12-02T10:01:45.475Z,63.80
2018-12-02T10:04:12.999Z,63.94
2018-12-02T10:06:40.375Z,63.24
2018-12-02T10:09:09.503Z,63.42
2018-12-02T10:11:36.902Z,62.75
2018-12-02T10:14:04.326Z,63.51
2018-12-02T10:16:31.837Z,64.39
2018-12-02T10:18:59.377Z,63.14
2018-12-02T10:21:27.691Z,62.43
2018-12-02T10:23:55.025Z,62.28
2018-12-02T10:26:22.389Z,62.52
2018-12-02T10:28:49.726Z,62.70
2018-12-02T10:31:17.105Z,62.34
2018-12-02T10:33:44.457Z,62.13
2018-12-02T10:36:12.163Z,62.29
2018-12-02T10:38:39.540Z,63.00
2018-12-02T10:41:07.309Z,61.76
2018-12-02T10:43:34.729Z,62.12
2018-12-02T10:46:02.106Z,59.95
2018-12-02T10:48:29.474Z,61.65
2018-12-02T10:50:56.915Z,61.98
2018-12-02T10:53:24.327Z,62.37
2018-12-02T10:55:54.322Z,63.14
2018-12-02T10:58:24.716Z,63.58
2018-12-02T11:00:59.087Z,63.35
2018-12-02T11:03:26.550Z,62.41
2018-12-02T11:05:53.898Z,62.06
2018-12-02T11:08:21.282Z,62.15
2018-12-02T11:10:48.848Z,62.51
2018-12-02T11:13:16.386Z,64.54
2018-12-02T11:15:43.868Z,65.00
2018-12-02T11:18:12.411Z,62.78
2018-12-02T11:20:39.864Z,64.59
2018-12-02T11:23:07.974Z,64.91
2018-12-02T11:25:36.024Z,64.46
2018-12-02T11:28:04.022Z,63.35
2018-12-02T11:30:31.408Z,64.39
2018-12-02T11:32:58.908Z,64.24
2018-12-02T11:35:26.409Z,64.47
2018-12-02T11:37:53.837Z,64.07
2018-12-02T11:40:21.897Z,63.81
2018-12-02T11:42:51.153Z,63.64
2018-12-02T11:45:18.726Z,64.80
2018-12-02T11:47:48.321Z,63.97
2018-12-02T11:50:17.182Z,63.54
2018-12-02T11:52:44.652Z,64.46
2018-12-02T11:55:13.025Z,64.73
2018-12-02T11:57:40.447Z,66.30
2018-12-02T12:00:27.759Z,66.36
2018-12-02T12:02:56.395Z,64.24
2018-12-02T12:05:23.777Z,65.88
2018-12-02T12:07:51.229Z,64.83
2018-12-02T12:10:20.789Z,65.10
2018-12-02T12:12:49.763Z,63.87
2018-12-02T12:15:19.350Z,64.77
2018-12-02T12:17:46.889Z,64.39
2018-12-02T12:20:22.438Z,64.72
2018-12-02T12:22:50.410Z,64.26
2018-12-02T12:25:17.938Z,66.94
2018-12-02T12:27:45.345Z,65.75
2018-12-02T12:30:15.268Z,64.71
2018-12-02T12:32:42.676Z,63.87
2018-12-02T12:35:11.574Z,65.70
2018-12-02T12:37:39.067Z,65.12
2018-12-02T12:40:14.035Z,64.99
2018-12-02T12:42:42.948Z,64.30
2018-12-02T12:45:12.083Z,64.76
2018-12-02T12:47:40.109Z,64.63
2018-12-02T12:50:11.853Z,64.98
2018-12-02T12:52:39.428Z,65.79
2018-12-02T12:55:09.802Z,66.15
2018-12-02T12:57:37.264Z,66.72
2018-12-02T13:00:10.286Z,65.04
2018-12-02T13:02:38.154Z,66.16
2018-12-02T13:05:07.213Z,64.22
2018-12-02T13:07:34.595Z,64.07
2018-12-02T13:10:02.162Z,63.88
2018-12-02T13:12:29.655Z,63.98
2018-12-02T13:14:57.067Z,64.21
2018-12-02T13:17:24.517Z,63.98
2018-12-02T13:19:51.885Z,64.34
2018-12-02T13:22:20.043Z,65.90
2018-12-02T13:24:47.581Z,65.72
2018-12-02T13:27:14.925Z,64.35
2018-12-02T13:29:42.401Z,65.29
2018-12-02T13:32:09.786Z,64.78
2018-12-02T13:34:37.691Z,66.59
2018-12-02T13:37:08.457Z,66.14
2018-12-02T13:39:36.114Z,66.51
2018-12-02T13:42:03.531Z,65.27
2018-12-02T13:44:30.939Z,66.35
2018-12-02T13:46:58.561Z,67.56
2018-12-02T13:49:26.059Z,66.98
2018-12-02T13:51:53.495Z,65.14
2018-12-02T13:54:26.611Z,66.39
2018-12-02T13:56:54.177Z,64.99
2018-12-02T13:59:21.578Z,65.15
2018-12-02T14:01:48.948Z,64.96
2018-12-02T14:04:16.941Z,65.03
2018-12-02T14:06:44.130Z,65.89
2018-12-02T14:09:11.630Z,66.06
2018-12-02T14:11:39.020Z,64.95
2018-12-02T14:14:07.808Z,66.28
2018-12-02T14:17:11.968Z,65.55
2018-12-02T14:19:41.124Z,64.96
2018-12-02T14:22:08.602Z,65.50
2018-12-02T14:24:36.022Z,65.06
2018-12-02T14:27:03.565Z,66.71
2018-12-02T14:29:34.023Z,67.71
2018-12-02T14:32:03.988Z,67.05
2018-12-02T14:34:31.547Z,66.12
2018-12-02T14:36:58.987Z,66.83
2018-12-02T14:39:26.393Z,67.05
2018-12-02T14:41:53.724Z,67.82
2018-12-02T14:44:21.094Z,67.34
2018-12-02T14:46:48.421Z,67.09
2018-12-02T14:49:15.820Z,67.39
2018-12-02T14:51:43.215Z,68.77
2018-12-02T14:54:10.839Z,67.82
2018-12-02T14:56:38.226Z,68.23
2018-12-02T14:59:05.844Z,68.86
2018-12-02T15:01:33.312Z,67.88
2018-12-02T15:04:00.937Z,69.25
2018-12-02T15:06:28.492Z,68.35
2018-12-02T15:08:56.066Z,68.28
2018-12-02T15:11:23.425Z,68.33
2018-12-02T15:13:50.818Z,67.36
2018-12-02T15:16:18.216Z,67.34
2018-12-02T15:18:45.568Z,68.57
2018-12-02T15:21:12.970Z,67.07
2018-12-02T15:23:40.604Z,67.42
2018-12-02T15:26:07.984Z,68.83
2018-12-02T15:28:35.340Z,67.16
2018-12-02T15:31:02.856Z,66.43
2018-12-02T15:33:30.216Z,67.48
2018-12-02T15:35:57.561Z,67.78
2018-12-02T15:38:25.050Z,67.55
2018-12-02T15:40:52.720Z,66.83
2018-12-02T15:43:20.099Z,67.61
2018-12-02T15:45:47.555Z,67.60
2018-12-02T15:48:14.935Z,67.91
2018-12-02T15:50:42.341Z,66.25
2018-12-02T15:53:09.703Z,69.83
2018-12-02T15:55:37.498Z,67.30
2018-12-02T15:58:09.617Z,67.98
2018-12-02T16:00:38.875Z,67.78
2018-12-02T16:03:06.792Z,68.88
2018-12-02T16:05:34.294Z,68.41
2018-12-02T16:08:02.282Z,69.07
2018-12-02T16:10:30.438Z,68.34
2018-12-02T16:12:57.918Z,67.87
2018-12-02T16:15:30.888Z,68.59
2018-12-02T16:17:58.342Z,68.93
2018-12-02T16:20:29.995Z,68.51
2018-12-02T16:22:57.622Z,68.56
2018-12-02T16:25:25.026Z,67.02
2018-12-02T16:27:52.391Z,66.90
2018-12-02T16:30:20.518Z,67.29
2018-12-02T16:32:50.288Z,67.50
2018-12-02T16:35:18.149Z,66.68
2018-12-02T16:37:47.197Z,67.97
2018-12-02T16:40:16.629Z,66.42
2018-12-02T16:42:44.567Z,68.14
2018-12-02T16:45:14.112Z,65.69
2018-12-02T16:47:42.619Z,66.41
2018-12-02T16:50:17.900Z,65.75
2018-12-02T16:52:45.371Z,64.46
2018-12-02T16:55:15.587Z,65.16
2018-12-02T16:57:44.529Z,66.00
2018-12-02T17:00:17.629Z,65.85
2018-12-02T17:02:45.187Z,66.88
2018-12-02T17:05:12.698Z,65.70
2018-12-02T17:10:14.013Z,66.37
2018-12-02T17:12:45.070Z,65.58
2018-12-02T17:15:14.491Z,66.07
2018-12-02T17:17:42.294Z,66.54
2018-12-02T17:20:11.403Z,67.49
2018-12-02T17:22:39.031Z,66.30
2018-12-02T17:25:08.626Z,66.88
2018-12-02T17:27:36.138Z,65.17
2018-12-02T17:30:08.640Z,65.64
2018-12-02T17:32:36.099Z,65.67
2018-12-02T17:35:03.915Z,64.59
2018-12-02T17:37:31.280Z,66.95
2018-12-02T17:39:58.840Z,66.07
2018-12-02T17:42:26.196Z,65.25
2018-12-02T17:44:53.560Z,65.04
2018-12-02T17:47:20.956Z,64.01
2018-12-02T17:49:48.448Z,63.52
2018-12-02T17:52:16.125Z,63.89
2018-12-02T17:54:43.730Z,65.24
2018-12-02T17:57:11.189Z,64.39
2018-12-02T17:59:38.567Z,64.21
2018-12-02T18:02:06.785Z,64.22
2018-12-02T18:04:34.145Z,64.39
2018-12-02T18:07:04.034Z,66.07
2018-12-02T18:09:31.605Z,64.17
2018-12-02T18:11:58.980Z,65.53
2018-12-02T18:14:26.442Z,65.19
2018-12-02T18:16:54.024Z,65.47
2018-12-02T18:19:22.059Z,65.29
2018-12-02T18:21:49.460Z,65.58
2018-12-02T18:24:16.845Z,65.11
2018-12-02T18:26:44.393Z,64.61
2018-12-02T18:29:11.961Z,64.18
2018-12-02T18:31:39.469Z,63.78
2018-12-02T18:34:06.852Z,63.83
2018-12-02T18:36:36.062Z,65.48
2018-12-02T18:39:06.870Z,63.47
2018-12-02T18:41:37.588Z,66.23
2018-12-02T18:44:07.059Z,65.72
2018-12-02T18:46:34.402Z,64.84
2018-12-02T18:49:01.799Z,64.70
2018-12-02T18:51:29.227Z,64.48
2018-12-02T18:53:56.697Z,65.17
2018-12-02T18:56:24.243Z,64.90
2018-12-02T18:58:51.625Z,63.55
2018-12-02T19:01:19.189Z,63.40
2018-12-02T19:03:46.802Z,63.76
2018-12-02T19:06:14.166Z,63.38
2018-12-02T19:08:41.726Z,63.38
2018-12-02T19:11:09.322Z,63.35
2018-12-02T19:13:36.900Z,64.53
2018-12-02T19:16:04.261Z,62.28
2018-12-02T19:18:31.703Z,63.63
2018-12-02T19:21:02.402Z,62.57
2018-12-02T19:23:31.968Z,63.58
2018-12-02T19:25:59.371Z,63.38
2018-12-02T19:28:26.823Z,64.40
2018-12-02T19:30:54.468Z,64.27
2018-12-02T19:33:23.580Z,63.65
2018-12-02T19:35:54.228Z,63.23
2018-12-02T19:38:23.275Z,64.19
2018-12-02T19:40:50.712Z,63.49
2018-12-02T19:43:18.258Z,64.33
2018-12-02T19:45:47.407Z,64.17
2018-12-02T19:48:14.815Z,65.09
2018-12-02T19:50:42.219Z,63.83
2018-12-02T19:53:09.643Z,63.84
2018-12-02T19:55:39.017Z,63.57
2018-12-02T19:58:08.541Z,64.38
2018-12-02T20:00:40.809Z,63.89
2018-12-02T20:03:08.772Z,63.52
2018-12-02T20:05:36.584Z,63.93
2018-12-02T20:08:04.062Z,62.77
2018-12-02T20:10:32.061Z,64.13
2018-12-02T20:13:02.510Z,64.14
2018-12-02T20:15:29.873Z,63.02
2018-12-02T20:17:57.268Z,63.64
2018-12-02T20:20:30.182Z,64.16
2018-12-02T20:22:57.714Z,62.74
2018-12-02T20:25:25.698Z,63.33
2018-12-02T20:27:55.174Z,64.40
2018-12-02T20:30:22.589Z,63.37
2018-12-02T20:32:50.458Z,64.16
2018-12-02T20:35:17.922Z,64.26
2018-12-02T20:37:46.449Z,64.50
2018-12-02T20:40:21.727Z,65.91
2018-12-02T20:42:50.070Z,65.45
2018-12-02T20:45:18.287Z,65.39
2018-12-02T20:47:45.891Z,67.78
2018-12-02T20:50:14.716Z,67.10
2018-12-02T20:52:42.100Z,66.27
2018-12-02T20:55:14.905Z,65.51
2018-12-02T20:57:42.941Z,65.42
2018-12-02T21:00:12.784Z,65.82
2018-12-02T21:02:41.127Z,64.83
2018-12-02T21:05:12.856Z,66.51
2018-12-02T21:07:40.279Z,66.82
2018-12-02T21:10:09.730Z,65.70
2018-12-02T21:12:37.455Z,67.41
2018-12-02T21:15:08.350Z,65.53
2018-12-02T21:17:35.964Z,65.42
2018-12-02T21:20:03.683Z,65.53
2018-12-02T21:22:31.161Z,65.39
2018-12-02T21:24:59.510Z,65.18
2018-12-02T21:27:26.901Z,65.11
2018-12-02T21:29:54.398Z,64.81
2018-12-02T21:32:22.621Z,64.84
2018-12-02T21:34:49.220Z,65.31
2018-12-02T21:37:16.629Z,65.62
2018-12-02T21:39:44.026Z,65.86
2018-12-02T21:42:11.392Z,66.31
2018-12-02T21:44:39.387Z,65.82
2018-12-02T21:47:07.009Z,65.41
2018-12-02T21:49:34.392Z,64.63
2018-12-02T21:52:01.881Z,66.03
2018-12-02T21:54:29.846Z,66.00
2018-12-02T21:56:57.285Z,65.31
2018-12-02T21:59:24.718Z,66.16
2018-12-02T22:01:52.201Z,66.13
2018-12-02T22:04:19.644Z,64.94
2018-12-02T22:06:47.123Z,65.10
2018-12-02T22:09:14.494Z,66.22
2018-12-02T22:11:42.081Z,64.93
2018-12-02T22:14:10.063Z,65.52
2018-12-02T22:16:37.475Z,64.29
2018-12-02T22:19:05.493Z,64.83
2018-12-02T22:21:32.946Z,65.25
2018-12-02T22:24:01.362Z,65.95
2018-12-02T22:26:27.755Z,64.91
2018-12-02T22:28:55.155Z,66.35
2018-12-02T22:31:22.578Z,64.99
2018-12-02T22:33:50.069Z,65.36
2018-12-02T22:36:17.442Z,65.49
2018-12-02T22:38:44.712Z,64.82
2018-12-02T22:41:12.118Z,64.33
2018-12-02T22:43:39.477Z,65.79
2018-12-02T22:46:06.994Z,67.15
2018-12-02T22:48:34.482Z,64.95
2018-12-02T22:51:01.857Z,64.50
2018-12-02T22:53:29.272Z,64.16
2018-12-02T22:55:56.697Z,64.67
2018-12-02T22:58:24.222Z,64.84
2018-12-02T23:00:57.286Z,64.76
2018-12-02T23:03:24.642Z,65.19
2018-12-02T23:05:52.250Z,64.54
2018-12-02T23:08:19.702Z,64.97
2018-12-02T23:10:47.102Z,65.29
2018-12-02T23:13:14.541Z,64.66
2018-12-02T23:15:41.921Z,64.58
2018-12-02T23:18:10.887Z,64.30
2018-12-02T23:20:38.260Z,65.34
2018-12-02T23:23:05.810Z,65.49
2018-12-02T23:25:33.356Z,64.40
2018-12-02T23:28:00.807Z,63.51
2018-12-02T23:30:28.220Z,64.49
2018-12-02T23:32:55.657Z,64.29
2018-12-02T23:35:23.068Z,64.96
2018-12-02T23:37:50.618Z,64.09
2018-12-02T23:40:23.040Z,64.42
2018-12-02T23:42:50.758Z,63.34
2018-12-02T23:45:18.457Z,64.24
2018-12-02T23:47:45.879Z,63.40
2018-12-02T23:50:21.777Z,63.15
2018-12-02T23:52:49.137Z,62.30
2018-12-02T23:55:17.504Z,63.16
2018-12-02T23:57:45.159Z,62.97
